createdAt,value
2023-03-29T00:01:35.746Z,98931.16
2023-03-29T00:04:06.456Z,98930.25
2023-03-29T00:06:33.926Z,98911.13
2023-03-29T00:09:01.824Z,98911.25
2023-03-29T00:11:28.803Z,98911.19
2023-03-29T00:13:55.539Z,98912.88
2023-03-29T00:16:22.445Z,98913.69
2023-03-29T00:18:49.177Z,98903.19
2023-03-29T00:21:15.930Z,98901.53
2023-03-29T00:23:42.532Z,98894.63
2023-03-29T00:26:09.225Z,98889.50
2023-03-29T00:28:36.025Z,98900.75
2023-03-29T00:31:11.136Z,98892.16
2023-03-29T00:33:38.760Z,98892.16
2023-03-29T00:36:06.202Z,98882.72
2023-03-29T00:38:33.583Z,98884.72
2023-03-29T00:41:00.681Z,98885.78
2023-03-29T00:43:27.614Z,98879.00
2023-03-29T00:45:54.198Z,98894.84
2023-03-29T00:48:28.062Z,98888.88
2023-03-29T00:50:59.702Z,98890.81
2023-03-29T00:53:33.873Z,98881.44
2023-03-29T00:56:07.848Z,98880.59
2023-03-29T00:58:51.896Z,98880.66
2023-03-29T01:01:35.571Z,98867.81
2023-03-29T01:04:08.568Z,98862.00
2023-03-29T01:06:40.470Z,98861.44
2023-03-29T01:09:10.358Z,98865.81
2023-03-29T01:11:42.330Z,98864.28
2023-03-29T01:14:23.670Z,98872.31
2023-03-29T01:16:50.450Z,98868.22
2023-03-29T01:19:22.079Z,98866.69
2023-03-29T01:22:39.800Z,98866.72
2023-03-29T01:25:11.442Z,98860.22
2023-03-29T01:28:02.370Z,98850.06
2023-03-29T01:30:37.302Z,98851.19
2023-03-29T01:33:10.975Z,98846.19
2023-03-29T01:36:11.731Z,98836.19
2023-03-29T01:38:58.005Z,98827.59
2023-03-29T01:41:56.537Z,98818.16
2023-03-29T01:44:35.433Z,98814.94
2023-03-29T01:47:19.303Z,98819.38
2023-03-29T01:50:05.601Z,98822.13
2023-03-29T01:52:38.648Z,98815.34
2023-03-29T01:55:17.402Z,98815.44
2023-03-29T01:57:46.819Z,98807.69
2023-03-29T02:00:16.690Z,98808.72
2023-03-29T02:02:46.253Z,98805.69
2023-03-29T02:05:15.249Z,98804.75
2023-03-29T02:07:44.961Z,98806.22
2023-03-29T02:10:13.165Z,98815.66
2023-03-29T02:12:39.754Z,98815.56
2023-03-29T02:15:12.904Z,98817.59
2023-03-29T02:17:39.492Z,98818.59
2023-03-29T02:20:23.619Z,98825.59
2023-03-29T02:22:54.668Z,98819.56
2023-03-29T02:25:22.625Z,98809.38
2023-03-29T02:27:49.624Z,98816.25
2023-03-29T02:30:18.516Z,98808.56
2023-03-29T02:33:32.650Z,98809.41
2023-03-29T02:36:05.158Z,98806.81
2023-03-29T02:38:32.808Z,98804.38
2023-03-29T02:41:01.148Z,98799.31
2023-03-29T02:43:29.600Z,98796.97
2023-03-29T02:45:57.079Z,98804.84
2023-03-29T02:48:26.855Z,98791.22
2023-03-29T02:50:57.774Z,98802.84
2023-03-29T02:53:30.026Z,98787.44
2023-03-29T02:55:56.869Z,98793.44
2023-03-29T02:58:26.678Z,98778.16
2023-03-29T03:00:53.877Z,98796.03
2023-03-29T03:03:20.947Z,98788.91
2023-03-29T03:05:49.049Z,98793.22
2023-03-29T03:08:15.614Z,98789.63
2023-03-29T03:10:42.183Z,98793.22
2023-03-29T03:13:08.974Z,98794.94
2023-03-29T03:15:35.889Z,98795.72
2023-03-29T03:18:03.900Z,98789.72
2023-03-29T03:20:31.263Z,98795.00
2023-03-29T03:22:58.562Z,98790.63
2023-03-29T03:25:25.206Z,98804.69
2023-03-29T03:27:51.935Z,98797.72
2023-03-29T03:30:18.945Z,98793.44
2023-03-29T03:32:45.721Z,98777.88
2023-03-29T03:35:12.969Z,98782.13
2023-03-29T03:37:40.147Z,98785.59
2023-03-29T03:40:08.955Z,98789.09
2023-03-29T03:42:35.843Z,98784.78
2023-03-29T03:45:02.455Z,98784.75
2023-03-29T03:47:29.377Z,98786.63
2023-03-29T03:49:56.448Z,98781.53
2023-03-29T03:52:23.281Z,98779.81
2023-03-29T03:54:50.309Z,98771.16
2023-03-29T03:57:17.539Z,98774.56
2023-03-29T03:59:44.760Z,98776.38
2023-03-29T04:02:11.390Z,98776.56
2023-03-29T04:04:38.105Z,98771.38
2023-03-29T04:07:04.874Z,98769.78
2023-03-29T04:09:33.323Z,98776.59
2023-03-29T04:12:01.635Z,98757.81
2023-03-29T04:14:28.360Z,98770.69
2023-03-29T04:16:55.543Z,98768.91
2023-03-29T04:19:23.138Z,98760.31
2023-03-29T04:21:51.275Z,98763.88
2023-03-29T04:24:18.014Z,98769.09
2023-03-29T04:26:44.625Z,98763.94
2023-03-29T04:29:11.807Z,98776.09
2023-03-29T04:31:38.404Z,98772.81
2023-03-29T04:34:05.261Z,98778.09
2023-03-29T04:36:31.911Z,98775.59
2023-03-29T04:39:01.409Z,98773.00
2023-03-29T04:41:28.717Z,98762.75
2023-03-29T04:43:56.043Z,98772.19
2023-03-29T04:46:26.516Z,98770.53
2023-03-29T04:48:54.090Z,98775.09
2023-03-29T04:51:22.379Z,98778.59
2023-03-29T04:53:50.389Z,98781.97
2023-03-29T04:56:17.624Z,98781.03
2023-03-29T04:58:44.641Z,98774.94
2023-03-29T05:01:11.743Z,98780.13
2023-03-29T05:03:38.636Z,98777.59
2023-03-29T05:06:09.220Z,98785.56
2023-03-29T05:08:39.207Z,98781.09
2023-03-29T05:11:08.392Z,98780.00
2023-03-29T05:13:35.684Z,98780.91
2023-03-29T05:16:02.791Z,98783.47
2023-03-29T05:18:30.238Z,98776.69
2023-03-29T05:20:57.939Z,98779.03
2023-03-29T05:23:25.235Z,98779.03
2023-03-29T05:25:55.672Z,98778.91
2023-03-29T05:28:22.499Z,98779.81
2023-03-29T05:30:59.856Z,98776.28
2023-03-29T05:33:26.867Z,98778.00
2023-03-29T05:36:08.491Z,98778.81
2023-03-29T05:38:35.815Z,98787.50
2023-03-29T05:41:03.182Z,98794.34
2023-03-29T05:43:30.320Z,98791.59
2023-03-29T05:45:57.305Z,98796.69
2023-03-29T05:48:24.716Z,98797.41
2023-03-29T05:50:53.673Z,98795.66
2023-03-29T05:53:22.316Z,98794.66
2023-03-29T05:55:49.313Z,98793.75
2023-03-29T05:58:18.043Z,98786.75
2023-03-29T06:00:44.978Z,98789.22
2023-03-29T06:03:21.502Z,98793.44
2023-03-29T06:05:57.128Z,98803.75
2023-03-29T06:08:23.862Z,98805.31
2023-03-29T06:10:50.441Z,98800.03
2023-03-29T06:13:17.460Z,98788.50
2023-03-29T06:15:45.208Z,98787.56
2023-03-29T06:18:11.867Z,98787.34
2023-03-29T06:20:38.531Z,98790.84
2023-03-29T06:23:05.139Z,98789.66
2023-03-29T06:25:31.941Z,98795.50
2023-03-29T06:27:58.558Z,98794.53
2023-03-29T06:30:25.935Z,98793.44
2023-03-29T06:32:52.664Z,98788.03
2023-03-29T06:35:19.345Z,98790.50
2023-03-29T06:37:50.005Z,98793.88
2023-03-29T06:40:19.164Z,98793.66
2023-03-29T06:42:46.485Z,98801.44
2023-03-29T06:45:13.689Z,98798.97
2023-03-29T06:47:41.156Z,98808.34
2023-03-29T06:50:08.546Z,98801.22
2023-03-29T06:52:35.270Z,98807.13
2023-03-29T06:55:01.945Z,98804.19
2023-03-29T06:57:28.594Z,98801.38
2023-03-29T06:59:55.313Z,98805.44
2023-03-29T07:02:22.701Z,98809.75
2023-03-29T07:04:49.411Z,98811.41
2023-03-29T07:07:22.714Z,98813.75
2023-03-29T07:09:58.084Z,98809.22
2023-03-29T07:12:24.722Z,98808.19
2023-03-29T07:14:51.357Z,98812.25
2023-03-29T07:17:18.541Z,98811.16
2023-03-29T07:19:45.182Z,98803.88
2023-03-29T07:22:11.779Z,98807.09
2023-03-29T07:24:38.378Z,98815.59
2023-03-29T07:27:05.119Z,98811.06
2023-03-29T07:29:32.609Z,98805.75
2023-03-29T07:31:59.202Z,98814.19
2023-03-29T07:34:25.876Z,98807.00
2023-03-29T07:36:52.624Z,98812.72
2023-03-29T07:39:19.248Z,98810.78
2023-03-29T07:41:46.005Z,98813.25
2023-03-29T07:44:12.659Z,98816.44
2023-03-29T07:46:39.201Z,98821.47
2023-03-29T07:49:07.473Z,98806.38
2023-03-29T07:51:34.140Z,98817.41
2023-03-29T07:54:00.797Z,98822.41
2023-03-29T07:56:27.426Z,98819.28
2023-03-29T07:58:53.983Z,98804.81
2023-03-29T08:01:20.680Z,98812.88
2023-03-29T08:03:48.141Z,98814.41
2023-03-29T08:06:16.217Z,98816.91
2023-03-29T08:08:42.887Z,98814.50
2023-03-29T08:11:10.258Z,98823.38
2023-03-29T08:13:37.434Z,98820.56
2023-03-29T08:16:05.843Z,98815.97
2023-03-29T08:18:34.691Z,98807.09
2023-03-29T08:21:02.141Z,98806.06
2023-03-29T08:23:28.945Z,98803.34
2023-03-29T08:25:55.740Z,98795.06
2023-03-29T08:28:22.352Z,98787.41
2023-03-29T08:30:49.763Z,98790.09
2023-03-29T08:33:17.023Z,98789.72
2023-03-29T08:35:43.924Z,98786.31
2023-03-29T08:38:11.309Z,98782.22
2023-03-29T08:40:38.060Z,98780.81
2023-03-29T08:43:07.936Z,98785.75
2023-03-29T08:45:55.935Z,98780.19
2023-03-29T08:48:44.141Z,98789.81
2023-03-29T08:51:30.583Z,98779.94
2023-03-29T08:54:05.434Z,98777.25
2023-03-29T08:56:36.129Z,98781.16
2023-03-29T08:59:03.959Z,98781.63
2023-03-29T09:01:35.394Z,98778.94
2023-03-29T09:04:08.952Z,98779.88
2023-03-29T09:06:36.086Z,98772.94
2023-03-29T09:09:03.600Z,98769.97
2023-03-29T09:11:48.210Z,98766.38
2023-03-29T09:14:57.047Z,98767.63
2023-03-29T09:17:52.132Z,98767.63
2023-03-29T09:20:36.658Z,98761.53
2023-03-29T09:23:18.826Z,98761.78
2023-03-29T09:25:57.467Z,98738.16
2023-03-29T09:28:38.488Z,98743.88
2023-03-29T09:31:21.210Z,98741.97
2023-03-29T09:34:17.690Z,98747.25
2023-03-29T09:36:58.046Z,98747.25
2023-03-29T09:39:28.305Z,98741.47
2023-03-29T09:42:05.241Z,98736.97
2023-03-29T09:44:54.363Z,98729.00
2023-03-29T09:47:28.138Z,98721.47
2023-03-29T09:50:02.064Z,98718.91
2023-03-29T09:52:28.792Z,98717.22
2023-03-29T09:54:55.829Z,98717.38
2023-03-29T09:57:22.612Z,98727.06
2023-03-29T09:59:51.819Z,98714.31
2023-03-29T10:02:21.128Z,98734.94
2023-03-29T10:04:55.771Z,98731.63
2023-03-29T10:07:22.784Z,98736.44
2023-03-29T10:09:52.279Z,98725.56
2023-03-29T10:12:20.044Z,98728.22
2023-03-29T10:14:52.227Z,98723.38
2023-03-29T10:17:22.453Z,98727.38
2023-03-29T10:20:04.050Z,98722.47
2023-03-29T10:22:37.868Z,98724.38
2023-03-29T10:25:12.931Z,98715.84
2023-03-29T10:27:43.081Z,98716.81
2023-03-29T10:30:18.554Z,62137.28
2023-03-29T10:32:45.393Z,62137.28
2023-03-29T10:35:43.780Z,62137.28
2023-03-29T10:38:23.042Z,62137.28
2023-03-29T10:40:52.512Z,62137.28
2023-03-29T10:43:34.146Z,62137.28
2023-03-29T10:46:17.613Z,62137.28
2023-03-29T10:48:50.374Z,62137.28
2023-03-29T10:51:19.091Z,62137.28
2023-03-29T10:53:45.852Z,62137.28
2023-03-29T10:56:37.148Z,62137.28
2023-03-29T10:59:07.338Z,62137.28
2023-03-29T11:02:13.036Z,62137.28
2023-03-29T11:05:01.625Z,62137.28
2023-03-29T11:07:35.903Z,62137.28
2023-03-29T11:10:30.690Z,62137.28
2023-03-29T11:13:33.153Z,62137.28
2023-03-29T11:16:11.853Z,62137.28
2023-03-29T11:19:02.582Z,62137.28
2023-03-29T11:22:01.330Z,62137.28
2023-03-29T11:24:40.052Z,62137.28
2023-03-29T11:27:24.360Z,62137.28
2023-03-29T11:30:08.717Z,62137.28
2023-03-29T11:32:46.491Z,62137.28
2023-03-29T11:35:33.433Z,62137.28
2023-03-29T11:38:08.452Z,62137.28
2023-03-29T11:40:46.617Z,62137.28
2023-03-29T11:43:20.864Z,62137.28
2023-03-29T11:45:55.065Z,62137.28
2023-03-29T11:48:28.370Z,62137.28
2023-03-29T11:50:57.767Z,62137.28
2023-03-29T11:54:07.849Z,62137.28
2023-03-29T11:56:43.531Z,62137.28
2023-03-29T11:59:18.403Z,62137.28
2023-03-29T12:02:14.429Z,62137.28
2023-03-29T12:04:52.145Z,62137.28
2023-03-29T12:07:33.145Z,62137.28
2023-03-29T12:10:16.575Z,62137.28
2023-03-29T12:12:49.001Z,62137.28
2023-03-29T12:15:21.491Z,62137.28
2023-03-29T12:18:15.940Z,62137.28
2023-03-29T12:20:43.190Z,98716.81
2023-03-29T12:23:14.552Z,98689.81
2023-03-29T12:25:43.766Z,98690.00
2023-03-29T12:28:38.896Z,98679.47
2023-03-29T12:31:14.381Z,98687.03
2023-03-29T12:33:55.052Z,98688.13
2023-03-29T12:36:43.861Z,98694.47
2023-03-29T12:39:19.294Z,98694.41
2023-03-29T12:41:48.990Z,98697.47
2023-03-29T12:44:17.685Z,98696.41
2023-03-29T12:46:44.527Z,98689.34
2023-03-29T12:49:26.871Z,98691.38
2023-03-29T12:51:58.937Z,98695.63
2023-03-29T12:54:31.117Z,98683.94
2023-03-29T12:57:01.968Z,98683.19
2023-03-29T12:59:34.568Z,98683.50
2023-03-29T13:02:19.623Z,98677.16
2023-03-29T13:04:55.191Z,98679.44
2023-03-29T13:07:27.977Z,98677.25
2023-03-29T13:10:03.703Z,98676.13
2023-03-29T13:12:46.057Z,98675.28
2023-03-29T13:15:16.785Z,98677.53
2023-03-29T13:18:07.046Z,98665.59
2023-03-29T13:20:52.076Z,98662.56
2023-03-29T13:23:37.003Z,98651.00
2023-03-29T13:26:09.611Z,98658.22
2023-03-29T13:29:22.477Z,98654.22
2023-03-29T13:32:27.636Z,98654.16
2023-03-29T13:35:22.603Z,98652.84
2023-03-29T13:38:03.749Z,98653.19
2023-03-29T13:40:30.288Z,98645.09
2023-03-29T13:43:09.597Z,98636.88
2023-03-29T13:45:37.114Z,98623.63
2023-03-29T13:48:27.224Z,98634.34
2023-03-29T13:51:18.483Z,98629.69
2023-03-29T13:54:17.866Z,98634.84
2023-03-29T13:57:01.454Z,98629.69
2023-03-29T14:00:07.216Z,98621.19
2023-03-29T14:02:52.742Z,98608.78
2023-03-29T14:05:28.447Z,98611.22
2023-03-29T14:07:55.833Z,98603.84
2023-03-29T14:10:38.796Z,98596.69
2023-03-29T14:13:05.481Z,98593.25
2023-03-29T14:15:45.498Z,98599.44
2023-03-29T14:18:15.220Z,98594.16
2023-03-29T14:20:46.855Z,98586.13
2023-03-29T14:23:43.554Z,98590.00
2023-03-29T14:26:19.034Z,98589.47
2023-03-29T14:28:56.459Z,98581.63
2023-03-29T14:31:26.868Z,98580.41
2023-03-29T14:33:56.634Z,98576.66
2023-03-29T14:36:25.157Z,98570.06
2023-03-29T14:39:20.181Z,98569.69
2023-03-29T14:41:52.906Z,98567.41
2023-03-29T14:44:26.030Z,98575.41
2023-03-29T14:46:53.606Z,98561.47
2023-03-29T14:49:22.947Z,98556.84
2023-03-29T14:51:50.909Z,98557.50
2023-03-29T14:54:21.102Z,98557.94
2023-03-29T14:56:49.040Z,98554.47
2023-03-29T14:59:44.514Z,98551.50
2023-03-29T15:02:30.733Z,98543.94
2023-03-29T15:05:05.321Z,98537.63
2023-03-29T15:07:37.177Z,98536.41
2023-03-29T15:10:06.521Z,98541.16
2023-03-29T15:12:34.220Z,98530.66
2023-03-29T15:15:02.621Z,98523.91
2023-03-29T15:17:50.492Z,98519.97
2023-03-29T15:20:26.127Z,98526.88
2023-03-29T15:23:15.791Z,98512.13
2023-03-29T15:25:51.348Z,98516.44
2023-03-29T15:28:31.009Z,98511.84
2023-03-29T15:31:07.679Z,98505.66
2023-03-29T15:33:37.994Z,98508.88
2023-03-29T15:36:06.812Z,98503.69
2023-03-29T15:38:43.146Z,98506.34
2023-03-29T15:41:11.225Z,98509.31
2023-03-29T15:43:38.055Z,98497.25
2023-03-29T15:46:05.082Z,98479.50
2023-03-29T15:48:33.827Z,98481.13
2023-03-29T15:51:04.818Z,98470.22
2023-03-29T15:53:33.334Z,98472.03
2023-03-29T15:56:02.129Z,98460.81
2023-03-29T15:58:34.372Z,98461.66
2023-03-29T16:01:19.026Z,98457.44
2023-03-29T16:03:47.873Z,98449.06
2023-03-29T16:06:16.025Z,98440.31
2023-03-29T16:08:42.641Z,98432.59
2023-03-29T16:11:09.414Z,98430.25
2023-03-29T16:13:36.073Z,98426.50
2023-03-29T16:16:03.008Z,98413.34
2023-03-29T16:18:29.899Z,98405.41
2023-03-29T16:20:56.960Z,98415.06
2023-03-29T16:23:23.595Z,98413.66
2023-03-29T16:25:50.398Z,98420.81
2023-03-29T16:28:17.008Z,98413.84
2023-03-29T16:30:43.738Z,98400.56
2023-03-29T16:33:11.184Z,98409.53
2023-03-29T16:35:42.099Z,98403.41
2023-03-29T16:38:09.323Z,98407.91
2023-03-29T16:40:36.946Z,98408.03
2023-03-29T16:43:03.859Z,98402.44
2023-03-29T16:45:30.785Z,98386.50
2023-03-29T16:47:57.701Z,98378.69
2023-03-29T16:50:24.450Z,98376.56
2023-03-29T16:52:54.094Z,98379.94
2023-03-29T16:55:20.695Z,98385.81
2023-03-29T16:57:47.949Z,98392.78
2023-03-29T17:00:16.972Z,98391.41
2023-03-29T17:02:44.175Z,98382.75
2023-03-29T17:05:12.408Z,98380.38
2023-03-29T17:07:43.129Z,98378.84
2023-03-29T17:10:11.010Z,98377.44
2023-03-29T17:12:38.080Z,98381.47
2023-03-29T17:15:07.589Z,98383.56
2023-03-29T17:17:34.916Z,98381.59
2023-03-29T17:20:01.591Z,98376.16
2023-03-29T17:22:28.118Z,98385.22
2023-03-29T17:24:54.771Z,98380.19
2023-03-29T17:27:21.375Z,98378.25
2023-03-29T17:29:48.045Z,98379.63
2023-03-29T17:32:14.653Z,98381.28
2023-03-29T17:34:41.691Z,98368.00
2023-03-29T17:37:09.589Z,98376.34
2023-03-29T17:39:37.599Z,98372.84
2023-03-29T17:42:05.158Z,98371.66
2023-03-29T17:44:33.354Z,98362.69
2023-03-29T17:47:01.260Z,98369.25
2023-03-29T17:49:28.052Z,98364.59
2023-03-29T17:51:54.718Z,98373.09
2023-03-29T17:54:21.411Z,98368.19
2023-03-29T17:56:49.000Z,98366.47
2023-03-29T17:59:16.001Z,98366.97
2023-03-29T18:01:42.968Z,98368.22
2023-03-29T18:04:09.640Z,98364.53
2023-03-29T18:06:36.868Z,98375.34
2023-03-29T18:09:11.283Z,98367.06
2023-03-29T18:11:39.112Z,98365.31
2023-03-29T18:14:05.769Z,98358.47
2023-03-29T18:16:32.539Z,98359.81
2023-03-29T18:18:59.170Z,98352.28
2023-03-29T18:21:27.077Z,98346.41
2023-03-29T18:23:56.205Z,98334.50
2023-03-29T18:26:23.587Z,98342.72
2023-03-29T18:28:50.928Z,98349.78
2023-03-29T18:31:19.743Z,98352.69
2023-03-29T18:33:46.879Z,98351.50
2023-03-29T18:36:14.270Z,98348.16
2023-03-29T18:38:43.328Z,98349.22
2023-03-29T18:41:12.780Z,98340.97
2023-03-29T18:43:40.490Z,98338.81
2023-03-29T18:46:08.126Z,98332.34
2023-03-29T18:48:41.910Z,98337.28
2023-03-29T18:51:15.489Z,98331.53
2023-03-29T18:53:43.641Z,98329.53
2023-03-29T18:56:10.243Z,98327.38
2023-03-29T18:58:39.624Z,98330.28
2023-03-29T19:01:06.577Z,98330.50
2023-03-29T19:03:34.907Z,98330.63
2023-03-29T19:06:02.552Z,98327.41
2023-03-29T19:08:29.491Z,98332.94
2023-03-29T19:11:04.750Z,98333.19
2023-03-29T19:13:31.330Z,98335.09
2023-03-29T19:15:57.901Z,98327.66
2023-03-29T19:18:24.792Z,98327.53
2023-03-29T19:20:51.615Z,98327.91
2023-03-29T19:23:18.471Z,98331.75
2023-03-29T19:25:52.890Z,98326.72
2023-03-29T19:28:19.581Z,98328.16
2023-03-29T19:30:46.255Z,98327.94
2023-03-29T19:33:14.538Z,98330.91
2023-03-29T19:35:41.548Z,98324.44
2023-03-29T19:38:08.169Z,98318.41
2023-03-29T19:40:34.770Z,98325.53
2023-03-29T19:43:01.369Z,98321.06
2023-03-29T19:45:28.369Z,98317.84
2023-03-29T19:47:56.734Z,98317.94
2023-03-29T19:50:24.870Z,98312.66
2023-03-29T19:52:52.023Z,98306.78
2023-03-29T19:55:18.594Z,98307.63
2023-03-29T19:57:45.178Z,98310.28
2023-03-29T20:00:14.150Z,98315.66
2023-03-29T20:02:42.549Z,98309.66
2023-03-29T20:05:09.553Z,98305.09
2023-03-29T20:07:36.624Z,98299.09
2023-03-29T20:10:03.769Z,98298.13
2023-03-29T20:12:30.488Z,98298.41
2023-03-29T20:14:57.063Z,98296.59
2023-03-29T20:17:23.752Z,98295.41
2023-03-29T20:19:50.382Z,98297.44
2023-03-29T20:22:16.986Z,98289.88
2023-03-29T20:24:43.544Z,98284.94
2023-03-29T20:27:10.990Z,98283.25
2023-03-29T20:29:37.957Z,98283.00
2023-03-29T20:32:04.692Z,98280.50
2023-03-29T20:34:31.292Z,98280.63
2023-03-29T20:37:00.889Z,98284.47
2023-03-29T20:39:29.641Z,98281.34
2023-03-29T20:41:56.300Z,98276.41
2023-03-29T20:44:26.280Z,98279.13
2023-03-29T20:47:08.172Z,98272.53
2023-03-29T20:49:39.816Z,98272.78
2023-03-29T20:52:10.639Z,98272.19
2023-03-29T20:54:38.672Z,98270.28
2023-03-29T20:57:06.816Z,98272.06
2023-03-29T20:59:34.441Z,98273.16
2023-03-29T21:02:01.341Z,98258.63
2023-03-29T21:04:28.389Z,98264.25
2023-03-29T21:06:56.163Z,98267.97
2023-03-29T21:09:25.494Z,98267.97
2023-03-29T21:11:53.243Z,98265.44
2023-03-29T21:14:21.315Z,98270.66
2023-03-29T21:16:49.302Z,98263.31
2023-03-29T21:19:16.885Z,98274.69
2023-03-29T21:21:45.003Z,98270.94
2023-03-29T21:24:13.447Z,98265.91
2023-03-29T21:26:41.200Z,98263.50
2023-03-29T21:29:08.058Z,98270.28
2023-03-29T21:31:34.788Z,98271.13
2023-03-29T21:34:01.616Z,98276.97
2023-03-29T21:36:28.393Z,98270.13
2023-03-29T21:38:55.018Z,98277.31
2023-03-29T21:41:21.916Z,98286.81
2023-03-29T21:43:48.752Z,98276.16
2023-03-29T21:46:15.656Z,98263.00
2023-03-29T21:48:42.523Z,98278.56
2023-03-29T21:51:09.315Z,98269.94
2023-03-29T21:53:36.187Z,98274.50
2023-03-29T21:56:03.113Z,98279.63
2023-03-29T21:58:29.691Z,98292.38
2023-03-29T22:00:57.230Z,98297.06
2023-03-29T22:03:23.930Z,98317.28
2023-03-29T22:06:02.545Z,98321.16
2023-03-29T22:08:30.776Z,98308.09
2023-03-29T22:10:57.459Z,98304.75
2023-03-29T22:13:25.398Z,98305.47
2023-03-29T22:15:58.651Z,98304.63
2023-03-29T22:18:30.420Z,98292.53
2023-03-29T22:20:57.490Z,98297.97
2023-03-29T22:23:24.904Z,98283.50
2023-03-29T22:25:51.708Z,98279.16
2023-03-29T22:28:18.342Z,98283.34
2023-03-29T22:30:44.892Z,98263.34
2023-03-29T22:33:11.500Z,98239.63
2023-03-29T22:35:38.074Z,98239.25
2023-03-29T22:38:04.642Z,98219.00
2023-03-29T22:40:34.492Z,98219.28
2023-03-29T22:43:02.698Z,98233.81
2023-03-29T22:45:31.319Z,98223.75
2023-03-29T22:47:58.002Z,98220.16
2023-03-29T22:50:24.566Z,98208.69
2023-03-29T22:52:51.119Z,98187.41
2023-03-29T22:55:17.724Z,98212.66
2023-03-29T22:57:44.666Z,98210.88
2023-03-29T23:00:13.176Z,98194.72
2023-03-29T23:02:40.016Z,98183.13
2023-03-29T23:05:07.399Z,98183.25
2023-03-29T23:07:36.541Z,98195.09
2023-03-29T23:10:07.193Z,98194.69
2023-03-29T23:12:36.212Z,98182.91
2023-03-29T23:15:06.299Z,98178.00
2023-03-29T23:17:32.940Z,98182.16
2023-03-29T23:19:59.538Z,98177.50
2023-03-29T23:22:26.220Z,98182.59
2023-03-29T23:24:53.428Z,98190.00
2023-03-29T23:27:21.297Z,98186.63
2023-03-29T23:29:48.073Z,98188.63
2023-03-29T23:32:15.737Z,98193.16
2023-03-29T23:34:42.648Z,98188.47
2023-03-29T23:37:09.240Z,98183.78
2023-03-29T23:39:35.881Z,98187.19
2023-03-29T23:42:03.457Z,98193.16
2023-03-29T23:44:30.618Z,98191.38
2023-03-29T23:46:57.579Z,98186.97
2023-03-29T23:49:24.257Z,98186.00
2023-03-29T23:51:50.830Z,98157.06
2023-03-29T23:54:17.695Z,98143.44
2023-03-29T23:56:44.406Z,98155.09
2023-03-29T23:59:10.949Z,98166.31
